createdAt,value
2022-11-07T00:00:27.737Z,30.8
2022-11-07T00:02:27.484Z,35.1
2022-11-07T00:04:28.320Z,31.6
2022-11-07T00:06:27.319Z,37.3
2022-11-07T00:08:27.376Z,33.8
2022-11-07T00:10:27.387Z,37.2
2022-11-07T00:12:27.135Z,33.9
2022-11-07T00:14:27.224Z,33.5
2022-11-07T00:16:27.203Z,34.4
2022-11-07T00:18:26.995Z,39.9
2022-11-07T00:20:26.889Z,36.6
2022-11-07T00:22:26.818Z,37.4
2022-11-07T00:24:26.733Z,39
2022-11-07T00:26:26.978Z,39.1
2022-11-07T00:28:26.569Z,37
2022-11-07T00:30:26.432Z,39
2022-11-07T00:32:26.418Z,39.4
2022-11-07T00:34:26.530Z,36.6
2022-11-07T00:36:27.885Z,37.3
2022-11-07T00:38:26.725Z,38.4
2022-11-07T00:40:26.339Z,38.3
2022-11-07T00:42:25.993Z,39.3
2022-11-07T00:44:25.931Z,37.6
2022-11-07T00:46:25.983Z,35.9
2022-11-07T00:48:25.849Z,37.2
2022-11-07T00:50:25.762Z,39.2
2022-11-07T00:52:25.607Z,36.5
2022-11-07T00:54:25.728Z,38.6
2022-11-07T00:56:25.661Z,37.8
2022-11-07T00:58:25.446Z,36.1
2022-11-07T01:00:25.844Z,37.3
2022-11-07T01:02:25.512Z,34.4
2022-11-07T01:04:25.225Z,36
2022-11-07T01:06:27.086Z,36.4
2022-11-07T01:08:25.809Z,37.6
2022-11-07T01:10:25.363Z,36.6
2022-11-07T01:12:24.926Z,38.3
2022-11-07T01:14:25.524Z,37
2022-11-07T01:16:25.624Z,35.5
2022-11-07T01:18:24.792Z,37
2022-11-07T01:20:24.820Z,37
2022-11-07T01:22:24.822Z,39.7
2022-11-07T01:24:24.583Z,36.8
2022-11-07T01:26:24.481Z,36
2022-11-07T01:28:24.455Z,35.6
2022-11-07T01:30:24.329Z,36.8
2022-11-07T01:32:24.365Z,31.8
2022-11-07T01:34:24.192Z,39.7
2022-11-07T01:36:24.410Z,38
2022-11-07T01:38:24.160Z,34
2022-11-07T01:40:24.344Z,37.2
2022-11-07T01:42:24.069Z,32.3
2022-11-07T01:44:53.538Z,34.4
2022-11-07T01:46:27.904Z,33.7
2022-11-07T01:48:23.781Z,31.4
2022-11-07T01:50:24.864Z,31.6
2022-11-07T01:52:28.296Z,32.2
2022-11-07T01:54:27.453Z,33.2
2022-11-07T01:56:27.197Z,33.5
2022-11-07T01:58:23.498Z,33.3
2022-11-07T02:00:24.740Z,36.6
2022-11-07T02:02:24.834Z,33.7
2022-11-07T02:04:26.870Z,33
2022-11-07T02:06:31.685Z,31.8
2022-11-07T02:08:23.998Z,35.9
2022-11-07T02:10:24.332Z,35.3
2022-11-07T02:12:25.382Z,31.4
2022-11-07T02:14:22.933Z,31.8
2022-11-07T02:16:22.944Z,33
2022-11-07T02:18:24.111Z,29.4
2022-11-07T02:20:22.773Z,32
2022-11-07T02:22:32.858Z,33.3
2022-11-07T02:24:26.394Z,30.5
2022-11-07T02:26:23.804Z,32.6
2022-11-07T02:28:24.447Z,32.5
2022-11-07T02:30:26.628Z,33.9
2022-11-07T02:32:22.509Z,32.6
2022-11-07T02:34:22.349Z,31.5
2022-11-07T02:36:23.846Z,29.6
2022-11-07T02:38:25.551Z,35.9
2022-11-07T02:40:23.207Z,32.6
2022-11-07T02:42:22.457Z,29
2022-11-07T02:44:22.344Z,31.3
2022-11-07T02:46:22.502Z,30.6
2022-11-07T02:48:21.963Z,32.1
2022-11-07T02:50:22.231Z,31.7
2022-11-07T02:52:21.703Z,33.4
2022-11-07T02:54:21.750Z,32
2022-11-07T02:56:22.547Z,31.7
2022-11-07T02:58:21.516Z,31
2022-11-07T03:00:21.537Z,32.8
2022-11-07T03:02:21.681Z,36.4
2022-11-07T03:04:21.468Z,30.8
2022-11-07T03:06:24.301Z,32.4
2022-11-07T03:08:21.374Z,31.7
2022-11-07T03:10:21.261Z,33.1
2022-11-07T03:12:21.160Z,33.1
2022-11-07T03:14:21.570Z,31.3
2022-11-07T03:16:21.097Z,30.8
2022-11-07T03:18:21.342Z,32.3
2022-11-07T03:20:21.018Z,34.7
2022-11-07T03:22:21.043Z,35.4
2022-11-07T03:24:20.898Z,33
2022-11-07T03:26:20.864Z,32.5
2022-11-07T03:28:21.093Z,29.8
2022-11-07T03:30:20.744Z,35.8
2022-11-07T03:32:20.811Z,32.7
2022-11-07T03:34:20.787Z,31.4
2022-11-07T03:36:20.569Z,34.4
2022-11-07T03:38:20.650Z,31.6
2022-11-07T03:40:20.519Z,30.6
2022-11-07T03:42:20.535Z,30.8
2022-11-07T03:44:20.733Z,31.7
2022-11-07T03:46:20.323Z,31.7
2022-11-07T03:48:20.259Z,31.8
2022-11-07T03:50:21.429Z,30.8
2022-11-07T03:52:20.165Z,32.2
2022-11-07T03:54:20.409Z,29.4
2022-11-07T03:56:20.092Z,31
2022-11-07T03:58:20.046Z,34.3
2022-11-07T04:00:20.063Z,34.2
2022-11-07T04:02:20.079Z,33.1
2022-11-07T04:04:19.946Z,32.4
2022-11-07T04:06:19.824Z,32.3
2022-11-07T04:08:20.336Z,32.2
2022-11-07T04:10:19.731Z,35.6
2022-11-07T04:12:19.757Z,32.9
2022-11-07T04:14:19.611Z,35.1
2022-11-07T04:16:19.631Z,36.2
2022-11-07T04:18:19.546Z,39.1
2022-11-07T04:20:19.654Z,34.5
2022-11-07T04:22:19.515Z,34.3
2022-11-07T04:24:19.374Z,36.3
2022-11-07T04:26:19.493Z,35.2
2022-11-07T04:28:19.319Z,32.2
2022-11-07T04:30:19.723Z,38.2
2022-11-07T04:32:19.633Z,31.9
2022-11-07T04:34:19.233Z,38.5
2022-11-07T04:36:19.104Z,32.6
2022-11-07T04:38:19.229Z,31.4
2022-11-07T04:40:20.003Z,32.1
2022-11-07T04:42:19.012Z,32.1
2022-11-07T04:44:19.419Z,39.3
2022-11-07T04:46:19.009Z,45.8
2022-11-07T04:48:19.512Z,36.4
2022-11-07T04:50:19.630Z,35.3
2022-11-07T04:52:18.783Z,33.6
2022-11-07T04:54:18.698Z,35.6
2022-11-07T04:56:18.640Z,33.6
2022-11-07T04:58:19.019Z,35.1
2022-11-07T05:00:19.776Z,35.9
2022-11-07T05:02:18.737Z,32.6
2022-11-07T05:04:18.518Z,31.7
2022-11-07T05:06:18.469Z,31.4
2022-11-07T05:08:18.413Z,36.6
2022-11-07T05:10:21.888Z,29.1
2022-11-07T05:12:18.360Z,32.2
2022-11-07T05:14:18.258Z,40.5
2022-11-07T05:16:18.386Z,33.2
2022-11-07T05:18:18.337Z,36.7
2022-11-07T05:20:27.528Z,37.5
2022-11-07T05:22:18.116Z,35
2022-11-07T05:24:18.048Z,32.4
2022-11-07T05:26:18.093Z,32.9
2022-11-07T05:28:27.415Z,33.2
2022-11-07T05:30:17.974Z,61.9
2022-11-07T05:32:18.329Z,35.3
2022-11-07T05:34:17.821Z,35.4
2022-11-07T05:36:20.439Z,31.6
2022-11-07T05:38:17.855Z,35.4
2022-11-07T05:40:17.649Z,29.7
2022-11-07T05:42:17.645Z,33.9
2022-11-07T05:44:17.725Z,34.9
2022-11-07T05:46:17.492Z,55.8
2022-11-07T05:48:17.425Z,39.2
2022-11-07T05:50:17.857Z,36.6
2022-11-07T05:52:17.372Z,50.2
2022-11-07T05:54:17.344Z,39.3
2022-11-07T05:56:17.417Z,34.5
2022-11-07T05:58:17.471Z,31.2
2022-11-07T06:00:18.016Z,35.3
2022-11-07T06:02:17.397Z,31.4
2022-11-07T06:04:17.073Z,32.3
2022-11-07T06:06:17.016Z,30.8
2022-11-07T06:08:17.055Z,29.8
2022-11-07T06:10:17.265Z,36.2
2022-11-07T06:12:16.973Z,32.6
2022-11-07T06:14:17.033Z,31.2
2022-11-07T06:16:16.860Z,32.6
2022-11-07T06:18:19.997Z,31.6
2022-11-07T06:20:16.881Z,36.9
2022-11-07T06:22:16.718Z,32.4
2022-11-07T06:24:16.744Z,30.6
2022-11-07T06:26:16.739Z,31.5
2022-11-07T06:28:16.635Z,29.6
2022-11-07T06:30:17.085Z,28.9
2022-11-07T06:32:16.651Z,28.1
2022-11-07T06:34:16.572Z,30
2022-11-07T06:36:17.032Z,40.5
2022-11-07T06:38:16.503Z,27.4
2022-11-07T06:40:16.683Z,34.9
2022-11-07T06:42:16.726Z,28
2022-11-07T06:44:16.960Z,28.3
2022-11-07T06:46:17.499Z,50.4
2022-11-07T06:48:16.358Z,32.2
2022-11-07T06:50:17.029Z,31.1
2022-11-07T06:52:16.359Z,26.2
2022-11-07T06:54:16.427Z,29
2022-11-07T06:56:16.604Z,27.4
2022-11-07T06:58:16.281Z,26.5
2022-11-07T07:00:16.910Z,27
2022-11-07T07:02:36.801Z,25.9
2022-11-07T07:04:16.188Z,27.1
2022-11-07T07:06:17.001Z,25.1
2022-11-07T07:08:16.198Z,26.6
2022-11-07T07:10:16.587Z,23.7
2022-11-07T07:12:16.128Z,24.3
2022-11-07T07:14:16.122Z,24.1
2022-11-07T07:16:16.160Z,25.1
2022-11-07T07:18:16.514Z,22.3
2022-11-07T07:20:16.286Z,22.1
2022-11-07T07:22:16.120Z,26
2022-11-07T07:24:16.067Z,27.7
2022-11-07T07:26:16.893Z,24.3
2022-11-07T07:28:16.053Z,23
2022-11-07T07:30:16.164Z,25.1
2022-11-07T07:32:16.092Z,20.6
2022-11-07T07:34:16.073Z,20.7
2022-11-07T07:36:20.777Z,23.5
2022-11-07T07:38:16.080Z,20.6
2022-11-07T07:40:16.153Z,21.1
2022-11-07T07:42:18.116Z,20.5
2022-11-07T07:44:15.924Z,23.9
2022-11-07T07:46:20.479Z,22.9
2022-11-07T07:48:15.987Z,22.8
2022-11-07T07:50:15.905Z,22.8
2022-11-07T07:52:16.184Z,21.5
2022-11-07T07:54:16.027Z,20.1
2022-11-07T07:56:15.914Z,23.9
2022-11-07T07:58:15.880Z,29.2
2022-11-07T08:00:16.481Z,25.7
2022-11-07T08:02:16.183Z,26.8
2022-11-07T08:04:16.092Z,26.2
2022-11-07T08:06:15.981Z,22.1
2022-11-07T08:08:15.888Z,24.5
2022-11-07T08:12:15.846Z,27
2022-11-07T08:14:16.170Z,29.1
2022-11-07T08:16:15.920Z,22.5
2022-11-07T08:18:16.816Z,22.3
2022-11-07T08:20:17.781Z,23.6
2022-11-07T08:22:15.896Z,32.3
2022-11-07T08:24:15.888Z,30.1
2022-11-07T08:26:16.010Z,23
2022-11-07T08:28:16.050Z,22.2
2022-11-07T08:30:18.102Z,38.6
2022-11-07T08:32:15.844Z,28.7
2022-11-07T08:34:16.444Z,24.4
2022-11-07T08:36:15.804Z,44.7
2022-11-07T08:38:16.055Z,44
2022-11-07T08:40:15.830Z,27.1
2022-11-07T08:42:15.943Z,20.9
2022-11-07T08:44:15.766Z,20.6
2022-11-07T08:46:16.043Z,30.9
2022-11-07T08:48:16.478Z,31.9
2022-11-07T08:50:15.961Z,38.2
2022-11-07T08:52:15.812Z,31.2
2022-11-07T08:54:16.015Z,22.3
2022-11-07T08:56:15.867Z,28.8
2022-11-07T08:58:15.995Z,55
2022-11-07T09:00:16.378Z,52.9
2022-11-07T09:04:16.067Z,117.9
2022-11-07T09:06:16.387Z,78.5
2022-11-07T09:08:16.123Z,65.9
2022-11-07T09:10:16.075Z,97
2022-11-07T09:12:16.246Z,63.2
2022-11-07T09:14:16.002Z,29.8
2022-11-07T09:16:16.390Z,23.4
2022-11-07T09:18:16.038Z,19.3
2022-11-07T09:20:16.726Z,21.6
2022-11-07T09:22:16.090Z,23.6
2022-11-07T09:24:16.288Z,23.5
2022-11-07T09:26:16.186Z,16.8
2022-11-07T09:28:16.202Z,18.2
2022-11-07T09:30:16.645Z,20.1
2022-11-07T09:32:42.816Z,21.6
2022-11-07T09:34:16.233Z,19.7
2022-11-07T09:36:16.120Z,20.9
2022-11-07T09:38:16.402Z,22.8
2022-11-07T09:40:23.249Z,24.5
2022-11-07T09:42:27.873Z,16.7
2022-11-07T09:44:37.385Z,19
2022-11-07T09:46:26.680Z,20.5
2022-11-07T09:48:22.461Z,18.6
2022-11-07T09:50:25.142Z,18.2
2022-11-07T09:52:23.571Z,16.5
2022-11-07T09:54:20.828Z,17.7
2022-11-07T09:56:16.266Z,18
2022-11-07T09:58:25.345Z,17.8
2022-11-07T10:00:18.954Z,16.9
2022-11-07T10:02:20.039Z,20.9
2022-11-07T10:04:27.373Z,16.2
2022-11-07T10:06:24.363Z,22.5
2022-11-07T10:08:22.688Z,19.1
2022-11-07T10:10:27.722Z,15.7
2022-11-07T10:12:41.719Z,17.3
2022-11-07T10:14:27.216Z,16.6
2022-11-07T10:16:25.986Z,18.6
2022-11-07T10:18:27.909Z,14.9
2022-11-07T10:20:34.293Z,16.2
2022-11-07T10:22:27.581Z,32.7
2022-11-07T10:24:28.167Z,35.6
2022-11-07T10:26:22.516Z,33.9
2022-11-07T10:28:18.619Z,25.8
2022-11-07T10:30:18.702Z,18.7
2022-11-07T10:32:22.281Z,16.4
2022-11-07T10:34:22.575Z,16
2022-11-07T10:36:21.384Z,12.7
2022-11-07T10:38:21.209Z,15.9
2022-11-07T10:40:18.767Z,13.4
2022-11-07T10:42:19.888Z,15.6
2022-11-07T10:44:22.342Z,13.8
2022-11-07T10:46:20.571Z,12.9
2022-11-07T10:48:16.518Z,14.4
2022-11-07T10:50:19.585Z,14.3
2022-11-07T10:52:18.252Z,12.1
2022-11-07T10:54:21.861Z,12.3
2022-11-07T10:56:18.484Z,11.9
2022-11-07T10:58:19.699Z,10.9
2022-11-07T11:00:24.232Z,12.7
2022-11-07T11:02:20.451Z,10.4
2022-11-07T11:04:20.620Z,11.3
2022-11-07T11:06:22.810Z,11.8
2022-11-07T11:08:19.498Z,13.2
2022-11-07T11:10:19.709Z,11.6
2022-11-07T11:12:19.972Z,10.5
2022-11-07T11:14:20.378Z,12.8
2022-11-07T11:16:24.511Z,13.4
2022-11-07T11:18:18.135Z,11.2
2022-11-07T11:20:33.324Z,10.7
2022-11-07T11:22:18.552Z,10.5
2022-11-07T11:24:24.567Z,13
2022-11-07T11:26:24.137Z,12.9
2022-11-07T11:28:23.131Z,12.5
2022-11-07T11:30:19.229Z,13.8
2022-11-07T11:32:23.661Z,12.8
2022-11-07T11:34:25.075Z,11.4
2022-11-07T11:36:18.237Z,12.5
2022-11-07T11:38:23.568Z,12.9
2022-11-07T11:40:20.631Z,13.8
2022-11-07T11:42:29.809Z,15.4
2022-11-07T11:44:20.071Z,13.2
2022-11-07T11:46:25.047Z,14.7
2022-11-07T11:48:22.900Z,13.7
2022-11-07T11:50:19.106Z,13.7
2022-11-07T11:52:18.997Z,13.5
2022-11-07T11:54:16.529Z,12.4
2022-11-07T11:56:25.389Z,15.2
2022-11-07T11:58:29.204Z,15.5
2022-11-07T12:00:18.151Z,15.1
2022-11-07T12:02:35.306Z,23.3
2022-11-07T12:04:35.047Z,17.1
2022-11-07T12:06:18.595Z,22.7
2022-11-07T12:08:30.936Z,17.3
2022-11-07T12:10:25.126Z,19
2022-11-07T12:12:25.208Z,18.1
2022-11-07T12:14:36.087Z,20.6
2022-11-07T12:16:26.363Z,20.1
2022-11-07T12:18:24.293Z,16.3
2022-11-07T12:20:21.858Z,17.4
2022-11-07T12:22:32.016Z,18.9
2022-11-07T12:24:27.383Z,20.4
2022-11-07T12:26:22.852Z,21.6
2022-11-07T12:28:36.132Z,19.1
2022-11-07T12:30:23.822Z,18
2022-11-07T12:32:23.741Z,20.4
2022-11-07T12:34:27.866Z,20.4
2022-11-07T12:36:31.074Z,17.6
2022-11-07T12:38:46.260Z,16.7
2022-11-07T12:40:27.959Z,18.3
2022-11-07T12:42:32.815Z,16.6
2022-11-07T12:44:35.723Z,16.7
2022-11-07T12:46:25.168Z,17.4
2022-11-07T12:48:35.200Z,16.4
2022-11-07T12:50:29.661Z,18.2
2022-11-07T12:52:29.485Z,16.7
2022-11-07T12:54:35.789Z,15.3
2022-11-07T12:56:20.614Z,15.6
2022-11-07T12:58:20.208Z,16.7
2022-11-07T13:00:23.297Z,17.4
2022-11-07T13:02:27.437Z,17.1
2022-11-07T13:04:21.754Z,14.6
2022-11-07T13:06:24.604Z,15.4
2022-11-07T13:08:21.778Z,15.4
2022-11-07T13:10:22.043Z,16.2
2022-11-07T13:12:24.977Z,17.2
2022-11-07T13:14:24.390Z,17.1
2022-11-07T13:16:26.661Z,20.1
2022-11-07T13:18:20.180Z,22.2
2022-11-07T13:20:27.348Z,18
2022-11-07T13:22:22.493Z,16.6
2022-11-07T13:24:20.818Z,22
2022-11-07T13:26:46.484Z,17
2022-11-07T13:28:39.002Z,34.7
2022-11-07T13:30:33.061Z,26.2
2022-11-07T13:32:16.507Z,32.6
2022-11-07T13:34:25.771Z,47.1
2022-11-07T13:36:26.224Z,40.5
2022-11-07T13:38:19.158Z,36.5
2022-11-07T13:40:24.851Z,37.7
2022-11-07T13:42:18.154Z,18.4
2022-11-07T13:44:22.343Z,22.4
2022-11-07T13:46:23.614Z,18
2022-11-07T13:48:21.193Z,17.5
2022-11-07T13:50:22.980Z,17.7
2022-11-07T13:52:22.357Z,15.7
2022-11-07T13:54:20.567Z,21.5
2022-11-07T13:56:28.884Z,39.7
2022-11-07T13:58:18.338Z,28.6
2022-11-07T14:00:18.179Z,34.8
2022-11-07T14:02:21.817Z,72.9
2022-11-07T14:04:19.398Z,41.5
2022-11-07T14:06:16.996Z,98.5
2022-11-07T14:08:20.728Z,72.3
2022-11-07T14:10:24.017Z,84.4
2022-11-07T14:12:20.196Z,49.1
2022-11-07T14:14:16.588Z,35.9
2022-11-07T14:16:20.426Z,24.9
2022-11-07T14:18:17.966Z,25
2022-11-07T14:20:19.090Z,23.9
2022-11-07T14:22:25.518Z,22
2022-11-07T14:24:21.307Z,29
2022-11-07T14:26:18.625Z,31.1
2022-11-07T14:28:16.807Z,22.3
2022-11-07T14:30:18.359Z,24.8
2022-11-07T14:32:16.991Z,25.3
2022-11-07T14:34:19.008Z,20.4
2022-11-07T14:36:16.912Z,21.7
2022-11-07T14:38:18.837Z,21.3
2022-11-07T14:40:16.381Z,21.2
2022-11-07T14:42:18.421Z,21.3
2022-11-07T14:44:19.071Z,20.1
2022-11-07T14:46:20.356Z,23.2
2022-11-07T14:48:19.420Z,24.1
2022-11-07T14:50:20.584Z,22.1
2022-11-07T14:52:20.378Z,19.9
2022-11-07T14:54:19.235Z,22.7
2022-11-07T14:56:20.041Z,20
2022-11-07T14:58:20.294Z,24
2022-11-07T15:00:19.218Z,23.8
2022-11-07T15:02:24.252Z,20.9
2022-11-07T15:04:25.538Z,23
2022-11-07T15:06:21.990Z,18.5
2022-11-07T15:08:32.483Z,20.5
2022-11-07T15:10:27.271Z,21.5
2022-11-07T15:12:19.216Z,21.8
2022-11-07T15:14:22.805Z,21
2022-11-07T15:16:18.413Z,21.5
2022-11-07T15:18:25.860Z,28.2
2022-11-07T15:20:20.096Z,22.8
2022-11-07T15:22:27.901Z,56.3
2022-11-07T15:24:30.918Z,32.3
2022-11-07T15:26:21.799Z,24.8
2022-11-07T15:28:23.399Z,25.7
2022-11-07T15:30:25.715Z,24.9
2022-11-07T15:32:18.883Z,21.1
2022-11-07T15:34:17.959Z,22.5
2022-11-07T15:36:16.940Z,19.9
2022-11-07T15:38:18.982Z,27.4
2022-11-07T15:40:16.342Z,23.6
2022-11-07T15:42:16.175Z,24.8
2022-11-07T15:44:16.895Z,22.5
2022-11-07T15:46:23.722Z,21.9
2022-11-07T15:48:20.534Z,22.5
2022-11-07T15:50:18.590Z,21.3
2022-11-07T15:52:16.314Z,24.7
2022-11-07T15:54:15.980Z,22.9
2022-11-07T15:56:19.565Z,21.9
2022-11-07T15:58:18.091Z,22.3
2022-11-07T16:00:18.613Z,26.4
2022-11-07T16:02:17.115Z,22.3
2022-11-07T16:04:15.712Z,23.9
2022-11-07T16:06:21.276Z,22.8
2022-11-07T16:08:18.195Z,22.3
2022-11-07T16:10:19.334Z,22
2022-11-07T16:12:16.780Z,22.2
2022-11-07T16:14:42.201Z,23.6
2022-11-07T16:16:20.713Z,22.4
2022-11-07T16:18:17.890Z,22.6
2022-11-07T16:20:17.824Z,21.7
2022-11-07T16:22:16.209Z,23.8
2022-11-07T16:24:15.702Z,24.5
2022-11-07T16:26:23.042Z,21.5
2022-11-07T16:28:23.603Z,20.9
2022-11-07T16:30:16.336Z,23.7
2022-11-07T16:32:18.471Z,21.8
2022-11-07T16:34:15.777Z,23.4
2022-11-07T16:36:20.964Z,23
2022-11-07T16:38:18.163Z,22.6
2022-11-07T16:40:18.010Z,23.9
2022-11-07T16:42:15.531Z,22.4
2022-11-07T16:44:17.638Z,20.7
2022-11-07T16:46:16.967Z,21.2
2022-11-07T16:48:19.231Z,20.3
2022-11-07T16:50:16.723Z,21.8
2022-11-07T16:52:17.578Z,21.7
2022-11-07T16:54:15.357Z,21.2
2022-11-07T16:56:22.359Z,19.5
2022-11-07T16:58:23.718Z,19.5
2022-11-07T17:00:19.734Z,20.4
2022-11-07T17:02:20.763Z,22.7
2022-11-07T17:04:15.456Z,28.7
2022-11-07T17:06:19.160Z,25
2022-11-07T17:08:18.611Z,20.8
2022-11-07T17:10:16.829Z,25.5
2022-11-07T17:12:17.428Z,26.7
2022-11-07T17:14:15.086Z,27.9
2022-11-07T17:16:17.316Z,29.1
2022-11-07T17:18:18.351Z,28.6
2022-11-07T17:20:48.562Z,27
2022-11-07T17:22:15.242Z,32.3
2022-11-07T17:24:15.134Z,31
2022-11-07T17:26:18.802Z,31.5
2022-11-07T17:28:15.456Z,33
2022-11-07T17:30:17.684Z,26.3
2022-11-07T17:32:15.251Z,27
2022-11-07T17:34:14.986Z,28
2022-11-07T17:36:24.570Z,28.9
2022-11-07T17:38:15.795Z,28.7
2022-11-07T17:40:18.111Z,30.9
2022-11-07T17:42:15.030Z,33.2
2022-11-07T17:44:16.218Z,37.5
2022-11-07T17:46:16.121Z,31.4
2022-11-07T17:48:15.260Z,38.3
2022-11-07T17:50:16.158Z,37.5
2022-11-07T17:52:14.894Z,33.9
2022-11-07T17:54:15.317Z,31
2022-11-07T17:56:16.643Z,28.8
2022-11-07T17:58:15.018Z,29.9
2022-11-07T18:00:17.619Z,30.2
2022-11-07T18:02:15.671Z,28.8
2022-11-07T18:04:14.619Z,34.8
2022-11-07T18:06:14.698Z,39.5
2022-11-07T18:08:31.302Z,32.4
2022-11-07T18:10:15.931Z,31.8
2022-11-07T18:12:14.650Z,31.2
2022-11-07T18:14:14.656Z,34.9
2022-11-07T18:16:16.430Z,34.5
2022-11-07T18:18:14.519Z,34.8
2022-11-07T18:20:14.650Z,35.4
2022-11-07T18:22:14.478Z,35.7
2022-11-07T18:24:14.572Z,32.9
2022-11-07T18:26:17.002Z,36.5
2022-11-07T18:28:14.934Z,36.4
2022-11-07T18:30:14.494Z,33.1
2022-11-07T18:32:14.754Z,32.9
2022-11-07T18:34:14.524Z,33.4
2022-11-07T18:36:16.818Z,37.7
2022-11-07T18:38:14.842Z,39.3
2022-11-07T18:40:14.563Z,39
2022-11-07T18:42:14.456Z,35.8
2022-11-07T18:44:15.044Z,35.8
2022-11-07T18:46:16.284Z,42.6
2022-11-07T18:48:14.772Z,39.3
2022-11-07T18:50:14.403Z,42.9
2022-11-07T18:52:14.336Z,46
2022-11-07T18:54:14.603Z,45.6
2022-11-07T18:56:14.788Z,44.6
2022-11-07T18:58:14.637Z,43.1
2022-11-07T19:00:16.047Z,42.8
2022-11-07T19:02:14.726Z,46.3
2022-11-07T19:04:14.559Z,40.2
2022-11-07T19:06:17.236Z,44.8
2022-11-07T19:08:14.686Z,43.8
2022-11-07T19:10:15.089Z,45.1
2022-11-07T19:12:14.346Z,42.9
2022-11-07T19:14:14.388Z,42.5
2022-11-07T19:16:17.116Z,45.2
2022-11-07T19:18:15.649Z,43.4
2022-11-07T19:20:14.314Z,46.9
2022-11-07T19:22:14.322Z,49.3
2022-11-07T19:24:14.631Z,42.9
2022-11-07T19:26:15.392Z,45.2
2022-11-07T19:28:14.623Z,48.4
2022-11-07T19:30:14.945Z,46.2
2022-11-07T19:32:14.442Z,49.4
2022-11-07T19:34:14.150Z,47.6
2022-11-07T19:36:16.927Z,47.5
2022-11-07T19:38:14.810Z,50.2
2022-11-07T19:40:14.046Z,49.5
2022-11-07T19:42:14.047Z,47.5
2022-11-07T19:44:14.632Z,49.3
2022-11-07T19:46:16.995Z,50.5
2022-11-07T19:48:14.692Z,50
2022-11-07T19:50:14.484Z,54.9
2022-11-07T19:52:13.913Z,52.5
2022-11-07T19:54:14.046Z,47.9
2022-11-07T19:56:14.811Z,49.3
2022-11-07T19:58:13.941Z,49.8
2022-11-07T20:00:14.563Z,52.2
2022-11-07T20:04:13.771Z,54.9
2022-11-07T20:06:16.764Z,50.8
2022-11-07T20:08:13.882Z,51.9
2022-11-07T20:10:13.724Z,50.4
2022-11-07T20:12:13.822Z,55.3
2022-11-07T20:14:13.633Z,52.6
2022-11-07T20:16:14.158Z,47.5
2022-11-07T20:18:14.119Z,49.4
2022-11-07T20:20:14.037Z,48.8
2022-11-07T20:22:13.573Z,46.7
2022-11-07T20:24:13.582Z,50.7
2022-11-07T20:26:15.767Z,53.4
2022-11-07T20:28:13.523Z,56.8
2022-11-07T20:30:13.817Z,54.3
2022-11-07T20:32:13.532Z,50.9
2022-11-07T20:34:15.601Z,55.5
2022-11-07T20:36:14.478Z,55.6
2022-11-07T20:38:13.426Z,55.2
2022-11-07T20:40:13.430Z,54.6
2022-11-07T20:42:13.740Z,53.4
2022-11-07T20:44:15.196Z,56.8
2022-11-07T20:46:14.499Z,54.5
2022-11-07T20:48:13.671Z,54.9
2022-11-07T20:50:13.371Z,60.4
2022-11-07T20:52:13.367Z,54
2022-11-07T20:54:14.349Z,61.3
2022-11-07T20:56:13.347Z,57.9
2022-11-07T20:58:13.211Z,57
2022-11-07T21:00:14.141Z,50.4
2022-11-07T21:02:13.215Z,56.2
2022-11-07T21:04:14.368Z,61
2022-11-07T21:06:13.098Z,60.5
2022-11-07T21:08:13.050Z,55.2
2022-11-07T21:10:13.168Z,56.3
2022-11-07T21:12:13.078Z,54.1
2022-11-07T21:14:13.022Z,53.6
2022-11-07T21:16:12.888Z,52.7
2022-11-07T21:18:12.894Z,55.3
2022-11-07T21:20:12.889Z,53.6
2022-11-07T21:22:12.838Z,56
2022-11-07T21:24:12.866Z,56.2
2022-11-07T21:26:15.696Z,60.7
2022-11-07T21:28:14.577Z,57.2
2022-11-07T21:30:13.080Z,60.6
2022-11-07T21:32:12.711Z,59.4
2022-11-07T21:34:12.631Z,60.8
2022-11-07T21:36:15.455Z,59.4
2022-11-07T21:38:12.552Z,59.5
2022-11-07T21:40:12.669Z,57.6
2022-11-07T21:42:12.547Z,56.1
2022-11-07T21:44:12.460Z,55.8
2022-11-07T21:46:14.241Z,54.9
2022-11-07T21:48:12.955Z,59.3
2022-11-07T21:50:30.687Z,59.6
2022-11-07T21:52:12.307Z,58
2022-11-07T21:54:12.263Z,59.5
2022-11-07T21:56:15.015Z,52.8
2022-11-07T21:58:12.303Z,56.5
2022-11-07T22:00:13.324Z,60.6
2022-11-07T22:02:12.590Z,56.4
2022-11-07T22:04:13.266Z,56.3
2022-11-07T22:06:12.344Z,60.6
2022-11-07T22:08:12.188Z,61.7
2022-11-07T22:10:12.456Z,61.9
2022-11-07T22:12:12.253Z,57.5
2022-11-07T22:14:13.969Z,59.4
2022-11-07T22:16:14.651Z,62.2
2022-11-07T22:18:11.973Z,60.1
2022-11-07T22:20:12.188Z,59.7
2022-11-07T22:22:12.211Z,58.3
2022-11-07T22:24:11.920Z,56.7
2022-11-07T22:26:13.693Z,59.7
2022-11-07T22:28:11.848Z,58.9
2022-11-07T22:30:12.296Z,61.4
2022-11-07T22:32:11.725Z,62
2022-11-07T22:34:11.711Z,62.5
2022-11-07T22:36:12.696Z,63.4
2022-11-07T22:38:11.594Z,59.6
2022-11-07T22:40:16.557Z,60.1
2022-11-07T22:42:11.547Z,62.4
2022-11-07T22:44:11.636Z,65.1
2022-11-07T22:46:13.293Z,70.5
2022-11-07T22:48:11.420Z,67.8
2022-11-07T22:50:11.461Z,66.8
2022-11-07T22:52:11.336Z,67
2022-11-07T22:54:12.675Z,74.7
2022-11-07T22:56:13.625Z,69.9
2022-11-07T22:58:11.246Z,74.9
2022-11-07T23:00:21.426Z,72.4
2022-11-07T23:02:11.375Z,72.4
2022-11-07T23:04:13.763Z,81.6
2022-11-07T23:06:11.343Z,68.6
2022-11-07T23:08:11.170Z,66.3
2022-11-07T23:10:11.064Z,65.3
2022-11-07T23:12:11.081Z,67.1
2022-11-07T23:14:12.664Z,65.4
2022-11-07T23:16:19.698Z,65.4
2022-11-07T23:18:10.987Z,63.8
2022-11-07T23:20:11.471Z,68
2022-11-07T23:22:10.833Z,65.6
2022-11-07T23:24:11.254Z,65.3
2022-11-07T23:26:12.623Z,69.7
2022-11-07T23:28:10.712Z,65.2
2022-11-07T23:30:11.699Z,70.3
2022-11-07T23:32:11.365Z,66.3
2022-11-07T23:34:11.036Z,69.6
2022-11-07T23:36:12.445Z,68.2
2022-11-07T23:38:10.687Z,70.8
2022-11-07T23:40:11.912Z,68.6
2022-11-07T23:42:11.109Z,66.9
2022-11-07T23:44:11.555Z,65.4
2022-11-07T23:46:11.911Z,66.8
2022-11-07T23:48:12.248Z,66.7
2022-11-07T23:50:10.413Z,66.7
2022-11-07T23:52:10.448Z,64.2
2022-11-07T23:54:10.334Z,65.9
2022-11-07T23:56:10.533Z,66.3
2022-11-07T23:58:10.242Z,62.7
